Terminal Aerodrome Forecast
Issued by NWS New Orleans/Baton Rouge, LA

Home | Current Version | Previous Version | Text Only | Print | Product List | Glossary On
Versions: 1 2 3 4 5 6 7 8 9 10 11 12 13 14
000
FTUS44 KLIX 281720
TAFBTR
TAF
KBTR 281720Z 2818/2918 22006KT P6SM VCSH SCT040
      TEMPO 2819/2823 VRB24KT 2SM TSRA BKN025CB
     FM290000 24004KT P6SM BKN250
     FM290500 00000KT P6SM SCT250=

USA.gov is the U.S. government's official web portal to all federal, state and local government web resources and services.